KEVW/EVW METAR and TAF weather

Enter ICAO airport designator
Station Type Date Time Source
KEVW METAR 2019/10/23 20:09 UTC NOAA

KEVW 232009Z AUTO 36018KT 3SM -SN SCT009 BKN019 OVC080 01/M02 A3023 RMK AO2 P0000 T00061022


Station Type Date Time Source
KEVW Decoded METAR 2019/10/23 20:09 UTC NOAA

EVANSTON-UINTA COUNTY FIELD, WY, United States (KEVW) 41-16N 111-02W 2177M
Oct 23, 2019 - 04:09 PM EDT / 2019.10.23 2009 UTC
Wind: from the N (360 degrees) at 21 MPH (18 KT):0
Visibility: 3 mile(s):0
Sky conditions: overcast
Weather: light snow
Precipitation last hour: A trace
Temperature: 33.1 F (0.6 C)
Windchill: 21 F (-6 C):1
Dew Point: 28.0 F (-2.2 C)
Relative Humidity: 81%
Pressure (altimeter): 30.23 in. Hg (1023 hPa)
ob: KEVW 232009Z AUTO 36018KT 3SM -SN SCT009 BKN019 OVC080 01/M02 A3023 RMK AO2 P0000 T00061022
cycle: 20

Station Type Date Time Source
KEVW TAF 2019/10/23 20:18 UTC NOAA

TAF KEVW 232010Z 2320/2418 36014G24KT P6SM VCSH SCT030 BKN060
TEMPO 2320/2323 1SM -SN BR FEW009 BKN017
FM240100 01007KT P6SM SCT060 SCT120
FM240900 12005KT P6SM SKC

Example: see airport list